Monroe, OR (97456)

4:29 PM PDT on August 03, 2015 (GMT -0700)
Monroe | | Change Station
CLOSE
Current Station
Personal Weather Station
Location: Monroe, OR
Elevation: 410 ft
Nearby Weather Stations

Elev 410 ft 44.32 °N, 123.31 °W | Updated 13 minutes ago

Partly Cloudy
Partly Cloudy
88.2 °F
Feels Like 86 °F
N
0.0
Wind Variable Wind from NW
Gusts 5.0 mph

Today
High -- | Low -- °F
--% Chance of Precip.
Yesterday
High -- | Low -- °F
Precip. -- in
6:02 AM 8:35 PM
Waning Gibbous, 83% visible
Pressure 29.91 in
Visibility 10.0 miles
Clouds Clear
Heat Index 86 °F
Dew Point 54 °F
Humidity 31%
Rainfall 0.00 in
Snow Depth Not available.
UV 6 out of 12
Pollen 3.70 out of 12
Air Quality Not available.
Flu Activity Not available.
METAR KCVO 032315Z 30010KT 10SM CLR 31/12 A2991 RMK AO1

More Conditions Fewer Conditions

Pressure 29.91 in
Visibility 10.0 miles
Clouds Clear
Heat Index 86 °F
Dew Point 54 °F
Humidity 31%
Rainfall 0.00 in
Snow Depth Not available.
UV 6 out of 12
Pollen 3.70 out of 12
Air Quality Not available.
Flu Activity Not available.
METAR KCVO 032315Z 30010KT 10SM CLR 31/12 A2991 RMK AO1

More Conditions Fewer Conditions

10-Day Weather Forecast

×

Almanac

Astronomy

Aug. 03, 2015 Rise Set
Actual Time
Civil Twilight
Nautical Twilight
Astronomical Twilight
Moon
Length of Visible Light
Length of Day
Tomorrow will be .
, % of the Moon is Illuminated

Today's Extremes

State Highs State Lows

Community

WunderPhotos

Upload Photos

1,843,786 photos uploaded!

WunderBlogs® & News

Nearby

Air Quality

  Air Quality AQ Index Pollutant
Not available.

Snow Depth

Station Depth Elevation

Earthquake Activity

City Distance Mag. Time & Date
Minimum magnitude displayed is 2.5.

Coastal Water Temperatures

Place Temperature

Stations

Nearby Weather Stations

Station Location Temp. Windchill Dew Point Humidity Wind Precip. Elev Updated Type